createdAt,value
2022-09-13T00:01:11.654Z,100253.34
2022-09-13T00:03:41.267Z,100239.41
2022-09-13T00:06:13.340Z,100224.50
2022-09-13T00:08:43.039Z,100224.69
2022-09-13T00:11:17.924Z,100225.03
2022-09-13T00:13:47.108Z,100223.66
2022-09-13T00:16:18.058Z,100232.91
2022-09-13T00:18:48.550Z,100234.94
2022-09-13T00:21:19.062Z,100239.66
2022-09-13T00:23:48.916Z,100225.97
2022-09-13T00:26:21.303Z,100225.19
2022-09-13T00:28:52.124Z,100225.53
2022-09-13T00:31:21.520Z,100218.72
2022-09-13T00:33:51.458Z,100218.09
2022-09-13T00:36:19.737Z,100212.19
2022-09-13T00:38:48.407Z,100215.97
2022-09-13T00:41:19.516Z,100218.94
2022-09-13T00:43:52.266Z,100221.75
2022-09-13T00:46:33.214Z,100213.19
2022-09-13T00:49:13.415Z,100223.94
2022-09-13T00:51:45.818Z,100220.69
2022-09-13T00:54:15.676Z,100227.19
2022-09-13T00:56:49.695Z,100235.34
2022-09-13T00:59:26.139Z,100239.97
2022-09-13T01:01:57.973Z,100228.66
2022-09-13T01:04:31.922Z,100225.22
2022-09-13T01:07:05.399Z,100214.66
2022-09-13T01:09:37.041Z,100215.50
2022-09-13T01:12:16.056Z,100213.09
2022-09-13T01:14:46.260Z,100215.97
2022-09-13T01:17:14.475Z,100211.69
2022-09-13T01:19:44.108Z,100218.84
2022-09-13T01:22:56.771Z,100227.88
2022-09-13T01:26:10.092Z,100227.41
2022-09-13T01:29:10.610Z,100230.22
2022-09-13T01:31:49.989Z,100233.78
2022-09-13T01:34:33.152Z,100230.22
2022-09-13T01:37:32.413Z,100230.22
2022-09-13T01:40:09.995Z,100235.34
2022-09-13T01:42:57.856Z,100230.00
2022-09-13T01:45:37.197Z,100222.91
2022-09-13T01:48:17.906Z,100218.63
2022-09-13T01:50:53.954Z,100203.63
2022-09-13T01:53:32.569Z,100207.91
2022-09-13T01:56:08.467Z,100199.13
2022-09-13T01:58:44.881Z,100194.00
2022-09-13T02:01:18.785Z,100196.78
2022-09-13T02:03:55.640Z,100205.81
2022-09-13T02:06:27.438Z,100226.25
2022-09-13T02:09:00.869Z,100217.63
2022-09-13T02:11:30.125Z,100219.56
2022-09-13T02:14:04.331Z,100237.38
2022-09-13T02:16:38.956Z,100249.03
2022-09-13T02:19:15.032Z,100255.38
2022-09-13T02:21:47.866Z,100244.91
2022-09-13T02:24:21.637Z,100242.19
2022-09-13T02:26:54.104Z,100238.59
2022-09-13T02:29:25.904Z,100237.91
2022-09-13T02:32:03.389Z,100237.03
2022-09-13T02:34:39.222Z,100244.81
2022-09-13T02:37:10.856Z,100252.84
2022-09-13T02:39:46.991Z,100237.91
2022-09-13T02:42:20.276Z,100252.88
2022-09-13T02:44:52.346Z,100252.88
2022-09-13T02:47:39.541Z,100260.97
2022-09-13T02:50:23.662Z,100255.94
2022-09-13T02:53:02.667Z,100248.75
2022-09-13T02:55:40.347Z,100250.25
2022-09-13T02:58:14.150Z,100238.59
2022-09-13T03:00:43.027Z,100240.16
2022-09-13T03:03:16.663Z,100236.44
2022-09-13T03:05:46.399Z,100236.28
2022-09-13T03:08:17.816Z,100257.41
2022-09-13T03:11:12.710Z,100244.28
2022-09-13T03:14:19.070Z,100231.00
2022-09-13T03:17:09.200Z,100217.03
2022-09-13T03:20:12.377Z,100202.19
2022-09-13T03:23:32.812Z,100210.31
2022-09-13T03:26:29.287Z,100212.47
2022-09-13T03:29:21.720Z,100210.16
2022-09-13T03:31:58.422Z,100216.38
2022-09-13T03:34:38.520Z,100213.81
2022-09-13T03:37:12.708Z,100205.97
2022-09-13T03:39:49.502Z,100210.41
2022-09-13T03:42:27.087Z,100209.53
2022-09-13T03:44:58.741Z,100216.53
2022-09-13T03:47:29.349Z,100206.75
2022-09-13T03:49:59.470Z,100211.09
2022-09-13T03:52:28.093Z,100207.66
2022-09-13T03:54:59.025Z,100204.09
2022-09-13T03:57:27.292Z,100203.31
2022-09-13T03:59:57.948Z,100193.84
2022-09-13T04:02:27.876Z,100199.44
2022-09-13T04:04:56.432Z,100200.59
2022-09-13T04:07:26.284Z,100195.53
2022-09-13T04:09:54.766Z,100198.31
2022-09-13T04:12:24.452Z,100201.19
2022-09-13T04:14:52.779Z,100205.84
2022-09-13T04:17:21.348Z,100204.88
2022-09-13T04:19:49.839Z,100198.75
2022-09-13T04:22:18.326Z,100199.59
2022-09-13T04:24:46.551Z,100198.69
2022-09-13T04:27:15.077Z,100199.47
2022-09-13T04:29:44.616Z,100197.47
2022-09-13T04:32:12.811Z,100202.59
2022-09-13T04:34:41.294Z,100196.31
2022-09-13T04:37:10.307Z,100198.00
2022-09-13T04:39:38.499Z,100194.31
2022-09-13T04:42:08.164Z,100191.53
2022-09-13T04:44:36.359Z,100200.13
2022-09-13T04:47:08.208Z,100183.28
2022-09-13T04:49:36.855Z,100183.13
2022-09-13T04:52:05.279Z,100191.81
2022-09-13T04:54:33.860Z,100205.97
2022-09-13T04:57:02.044Z,100212.25
2022-09-13T04:59:30.235Z,100219.38
2022-09-13T05:01:58.536Z,100222.09
2022-09-13T05:04:28.117Z,100217.81
2022-09-13T05:06:57.709Z,100224.97
2022-09-13T05:09:26.443Z,100218.78
2022-09-13T05:11:54.914Z,100223.19
2022-09-13T05:14:23.289Z,100228.34
2022-09-13T05:16:51.512Z,100233.47
2022-09-13T05:19:19.715Z,100236.88
2022-09-13T05:21:49.304Z,100230.66
2022-09-13T05:24:17.666Z,100237.66
2022-09-13T05:26:46.120Z,100236.66
2022-09-13T05:29:14.380Z,100246.06
2022-09-13T05:31:44.632Z,100245.91
2022-09-13T05:34:17.547Z,100243.03
2022-09-13T05:36:48.436Z,100245.44
2022-09-13T05:39:39.718Z,100245.28
2022-09-13T05:42:11.173Z,100240.84
2022-09-13T05:44:39.417Z,100224.94
2022-09-13T05:47:07.864Z,100238.00
2022-09-13T05:49:45.967Z,100240.41
2022-09-13T05:52:25.020Z,100250.59
2022-09-13T05:54:54.556Z,100250.19
2022-09-13T05:57:22.787Z,100248.97
2022-09-13T05:59:51.247Z,100238.81
2022-09-13T06:02:19.474Z,100237.66
2022-09-13T06:04:47.658Z,100244.38
2022-09-13T06:07:16.175Z,100245.75
2022-09-13T06:09:45.228Z,100242.78
2022-09-13T06:12:14.811Z,100240.75
2022-09-13T06:14:42.980Z,100234.19
2022-09-13T06:17:11.223Z,100229.53
2022-09-13T06:19:39.745Z,100233.53
2022-09-13T06:22:08.074Z,100236.78
2022-09-13T06:24:38.376Z,100230.38
2022-09-13T06:27:07.043Z,100242.44
2022-09-13T06:29:36.586Z,100242.09
2022-09-13T06:32:05.600Z,100241.94
2022-09-13T06:34:33.803Z,100241.00
2022-09-13T06:37:02.006Z,100237.34
2022-09-13T06:39:32.005Z,100231.88
2022-09-13T06:42:00.704Z,100235.22
2022-09-13T06:44:41.987Z,100228.78
2022-09-13T06:47:10.931Z,100229.47
2022-09-13T06:49:39.465Z,100228.38
2022-09-13T06:52:07.712Z,100234.25
2022-09-13T06:54:36.215Z,100237.50
2022-09-13T06:57:04.656Z,100245.94
2022-09-13T06:59:34.618Z,100245.56
2022-09-13T07:02:04.382Z,100249.66
2022-09-13T07:04:32.958Z,100243.16
2022-09-13T07:07:01.943Z,100248.09
2022-09-13T07:09:30.263Z,100254.75
2022-09-13T07:11:59.552Z,100263.13
2022-09-13T07:14:30.200Z,100264.47
2022-09-13T07:16:58.624Z,100260.53
2022-09-13T07:19:30.203Z,100260.16
2022-09-13T07:21:59.072Z,100266.03
2022-09-13T07:24:27.859Z,100260.53
2022-09-13T07:26:56.601Z,100263.78
2022-09-13T07:29:25.202Z,100264.56
2022-09-13T07:31:55.369Z,100263.41
2022-09-13T07:34:25.668Z,100263.06
2022-09-13T07:36:55.756Z,100261.00
2022-09-13T07:39:24.256Z,100263.47
2022-09-13T07:41:53.721Z,100264.03
2022-09-13T07:44:22.749Z,100255.78
2022-09-13T07:46:50.940Z,100257.25
2022-09-13T07:49:20.469Z,100248.16
2022-09-13T07:51:51.161Z,100236.50
2022-09-13T07:54:21.243Z,100237.34
2022-09-13T07:56:51.591Z,100225.03
2022-09-13T07:59:20.489Z,100215.47
2022-09-13T08:01:50.751Z,100240.38
2022-09-13T08:04:21.720Z,100250.25
2022-09-13T08:06:50.320Z,100242.94
2022-09-13T08:09:20.715Z,100231.19
2022-09-13T08:11:52.789Z,100234.63
2022-09-13T08:14:24.101Z,100231.66
2022-09-13T08:16:55.666Z,100226.94
2022-09-13T08:19:24.139Z,100226.47
2022-09-13T08:21:52.308Z,100219.81
2022-09-13T08:24:23.257Z,100210.22
2022-09-13T08:26:52.758Z,100192.00
2022-09-13T08:29:21.358Z,100192.47
2022-09-13T08:31:49.786Z,100205.47
2022-09-13T08:34:18.549Z,100200.59
2022-09-13T08:36:47.596Z,100199.16
2022-09-13T08:39:15.923Z,100224.91
2022-09-13T08:42:17.064Z,100224.97
2022-09-13T08:44:49.368Z,100231.28
2022-09-13T08:47:33.560Z,100227.81
2022-09-13T08:50:12.927Z,100236.56
2022-09-13T08:52:57.550Z,100235.97
2022-09-13T08:55:44.257Z,100228.75
2022-09-13T08:58:53.317Z,100226.97
2022-09-13T09:01:36.969Z,100236.66
2022-09-13T09:04:14.716Z,100227.25
2022-09-13T09:06:44.140Z,100231.09
2022-09-13T09:09:19.160Z,100220.44
2022-09-13T09:11:55.181Z,100213.25
2022-09-13T09:14:32.879Z,100217.81
2022-09-13T09:17:06.852Z,100210.25
2022-09-13T09:19:40.631Z,100206.00
2022-09-13T09:22:16.584Z,100200.56
2022-09-13T09:24:50.112Z,100205.25
2022-09-13T09:27:21.407Z,100200.03
2022-09-13T09:29:58.041Z,100199.06
2022-09-13T09:32:49.353Z,100201.91
2022-09-13T09:35:32.380Z,100211.97
2022-09-13T09:38:33.540Z,100207.56
2022-09-13T09:41:07.107Z,100209.38
2022-09-13T09:43:42.508Z,100216.69
2022-09-13T09:46:15.428Z,100225.63
2022-09-13T09:48:51.338Z,100233.63
2022-09-13T09:51:22.170Z,100230.50
2022-09-13T09:53:55.673Z,100226.19
2022-09-13T09:56:26.900Z,100220.16
2022-09-13T09:58:56.030Z,100216.56
2022-09-13T10:01:29.045Z,100218.53
2022-09-13T10:04:08.609Z,100218.78
2022-09-13T10:06:39.689Z,100210.75
2022-09-13T10:09:17.011Z,100207.19
2022-09-13T10:11:50.079Z,100210.97
2022-09-13T10:14:38.332Z,100202.69
2022-09-13T10:17:18.521Z,100198.78
2022-09-13T10:19:59.296Z,100197.38
2022-09-13T10:22:28.984Z,100198.59
2022-09-13T10:25:14.090Z,100206.09
2022-09-13T10:27:43.817Z,100213.88
2022-09-13T10:30:33.734Z,100217.84
2022-09-13T10:33:04.002Z,100224.88
2022-09-13T10:35:33.409Z,100224.78
2022-09-13T10:38:02.032Z,100230.56
2022-09-13T10:40:33.963Z,100235.66
2022-09-13T10:43:07.045Z,100242.47
2022-09-13T10:45:35.732Z,100241.63
2022-09-13T10:48:14.279Z,100246.88
2022-09-13T10:51:01.310Z,100245.66
2022-09-13T10:53:37.851Z,100230.09
2022-09-13T10:56:20.191Z,100234.47
2022-09-13T10:58:48.432Z,100226.75
2022-09-13T11:01:45.229Z,100234.78
2022-09-13T11:05:06.393Z,100237.22
2022-09-13T11:07:50.001Z,100232.88
2022-09-13T11:10:30.127Z,100235.50
2022-09-13T11:13:07.405Z,100231.63
2022-09-13T11:15:54.378Z,100209.53
2022-09-13T11:19:05.026Z,100199.28
2022-09-13T11:21:49.324Z,100191.47
2022-09-13T11:24:48.660Z,100207.13
2022-09-13T11:27:26.062Z,100211.25
2022-09-13T11:30:10.706Z,100186.97
2022-09-13T11:33:15.763Z,100193.22
2022-09-13T11:36:37.267Z,100185.81
2022-09-13T11:39:19.179Z,100186.88
2022-09-13T11:42:00.835Z,100179.22
2022-09-13T11:45:21.913Z,100181.34
2022-09-13T11:48:19.236Z,100177.06
2022-09-13T11:50:59.385Z,100154.06
2022-09-13T11:54:06.795Z,100152.78
2022-09-13T11:56:40.812Z,100158.38
2022-09-13T11:59:21.949Z,100154.50
2022-09-13T12:01:58.581Z,100144.84
2022-09-13T12:04:33.979Z,100141.34
2022-09-13T12:07:09.406Z,100146.84
2022-09-13T12:09:44.968Z,100148.06
2022-09-13T12:12:15.728Z,100144.19
2022-09-13T12:14:53.032Z,100132.34
2022-09-13T12:17:30.454Z,100135.03
2022-09-13T12:20:02.285Z,100126.03
2022-09-13T12:22:35.789Z,100127.47
2022-09-13T12:25:13.221Z,100121.91
2022-09-13T12:27:51.760Z,100117.81
2022-09-13T12:30:23.799Z,100113.44
2022-09-13T12:32:58.138Z,100112.44
2022-09-13T12:35:32.507Z,100106.00
2022-09-13T12:38:37.780Z,100103.19
2022-09-13T12:41:23.344Z,100102.19
2022-09-13T12:44:39.853Z,100102.09
2022-09-13T12:47:55.007Z,100106.53
2022-09-13T12:50:47.295Z,100099.47
2022-09-13T12:54:02.557Z,100098.81
2022-09-13T12:56:56.749Z,100092.56
2022-09-13T12:59:54.364Z,100100.78
2022-09-13T13:02:36.588Z,100086.38
2022-09-13T13:05:19.263Z,100097.66
2022-09-13T13:07:54.131Z,100098.84
2022-09-13T13:10:33.186Z,100095.56
2022-09-13T13:13:20.067Z,100101.91
2022-09-13T13:16:07.321Z,100099.53
2022-09-13T13:18:48.844Z,100105.53
2022-09-13T13:21:37.857Z,100090.66
2022-09-13T13:24:47.331Z,100087.78
2022-09-13T13:27:48.395Z,100087.91
2022-09-13T13:30:54.025Z,100084.50
2022-09-13T13:33:29.332Z,100079.25
2022-09-13T13:35:57.598Z,100066.31
2022-09-13T13:38:48.697Z,100074.78
2022-09-13T13:41:54.360Z,100065.19
2022-09-13T13:45:26.508Z,100059.81
2022-09-13T13:48:08.901Z,100069.41
2022-09-13T13:51:24.827Z,100054.44
2022-09-13T13:54:02.164Z,100052.47
2022-09-13T13:56:47.930Z,100060.16
2022-09-13T13:59:26.759Z,100047.25
2022-09-13T14:02:01.684Z,100051.91
2022-09-13T14:05:09.332Z,100042.66
2022-09-13T14:08:23.657Z,100041.50
2022-09-13T14:11:00.784Z,100043.66
2022-09-13T14:13:53.552Z,100037.03
2022-09-13T14:16:40.018Z,100036.59
2022-09-13T14:19:25.797Z,100028.16
2022-09-13T14:22:16.560Z,100019.97
2022-09-13T14:24:48.732Z,100028.44
2022-09-13T14:27:21.244Z,100021.13
2022-09-13T14:29:53.073Z,100015.59
2022-09-13T14:32:25.447Z,100004.72
2022-09-13T14:35:01.937Z,100013.59
2022-09-13T14:37:33.720Z,100014.19
2022-09-13T14:40:20.003Z,100004.03
2022-09-13T14:42:51.354Z,100001.63
2022-09-13T14:45:24.969Z,100003.47
2022-09-13T14:47:59.092Z,99993.75
2022-09-13T14:50:33.553Z,99999.09
2022-09-13T14:53:05.987Z,99995.28
2022-09-13T14:55:43.511Z,99997.69
2022-09-13T14:58:20.062Z,99985.69
2022-09-13T15:00:53.793Z,99976.38
2022-09-13T15:03:22.658Z,99977.94
2022-09-13T15:05:57.152Z,99969.75
2022-09-13T15:08:44.957Z,99963.69
2022-09-13T15:11:29.020Z,99964.69
2022-09-13T15:14:28.543Z,99956.09
2022-09-13T15:17:07.274Z,99954.38
2022-09-13T15:19:42.059Z,99951.13
2022-09-13T15:22:16.784Z,99952.00
2022-09-13T15:24:49.390Z,99948.59
2022-09-13T15:27:26.645Z,99947.19
2022-09-13T15:29:58.097Z,99943.97
2022-09-13T15:32:35.223Z,99946.91
2022-09-13T15:35:03.974Z,99942.69
2022-09-13T15:37:37.606Z,99943.81
2022-09-13T15:40:20.228Z,99946.91
2022-09-13T15:42:54.049Z,99939.03
2022-09-13T15:45:24.107Z,99934.78
2022-09-13T15:47:53.628Z,99930.69
2022-09-13T15:50:26.839Z,99933.66
2022-09-13T15:52:56.634Z,99930.25
2022-09-13T15:55:25.635Z,99930.25
2022-09-13T15:57:55.954Z,99926.56
2022-09-13T16:00:27.094Z,99922.94
2022-09-13T16:02:55.374Z,99923.78
2022-09-13T16:05:23.765Z,99926.31
2022-09-13T16:07:54.006Z,99926.31
2022-09-13T16:10:24.401Z,99930.81
2022-09-13T16:12:54.825Z,99925.63
2022-09-13T16:15:23.013Z,99919.53
2022-09-13T16:17:51.321Z,99923.47
2022-09-13T16:20:19.936Z,99925.84
2022-09-13T16:22:48.148Z,99924.56
2022-09-13T16:25:17.210Z,99932.19
2022-09-13T16:27:46.288Z,99935.25
2022-09-13T16:30:19.804Z,99939.34
2022-09-13T16:32:48.142Z,99942.56
2022-09-13T16:35:17.004Z,99939.59
2022-09-13T16:37:45.747Z,99935.50
2022-09-13T16:40:14.266Z,99949.28
2022-09-13T16:42:42.551Z,99935.72
2022-09-13T16:45:12.533Z,99944.44
2022-09-13T16:47:43.030Z,99936.19
2022-09-13T16:50:11.811Z,99934.22
2022-09-13T16:52:40.131Z,99931.09
2022-09-13T16:55:09.703Z,99926.28
2022-09-13T16:57:38.500Z,99930.16
2022-09-13T17:00:11.037Z,99936.06
2022-09-13T17:02:41.127Z,99929.44
2022-09-13T17:05:11.071Z,99926.16
2022-09-13T17:07:39.869Z,99925.00
2022-09-13T17:10:10.091Z,99929.19
2022-09-13T17:12:38.732Z,99929.00
2022-09-13T17:15:08.699Z,99926.97
2022-09-13T17:17:37.051Z,99934.88
2022-09-13T17:20:11.955Z,99937.34
2022-09-13T17:22:40.888Z,99943.19
2022-09-13T17:25:11.295Z,99951.00
2022-09-13T17:27:39.505Z,99942.78
2022-09-13T17:30:11.216Z,99944.97
2022-09-13T17:32:39.824Z,99946.34
2022-09-13T17:35:11.756Z,99946.72
2022-09-13T17:37:40.014Z,99946.25
2022-09-13T17:40:09.278Z,99942.16
2022-09-13T17:42:37.648Z,99946.03
2022-09-13T17:45:06.928Z,99942.75
2022-09-13T17:47:35.124Z,99949.19
2022-09-13T17:50:03.351Z,99953.09
2022-09-13T17:52:35.033Z,99949.84
2022-09-13T17:55:03.881Z,99953.66
2022-09-13T17:57:32.272Z,99946.75
2022-09-13T18:00:00.805Z,99932.97
2022-09-13T18:02:29.682Z,99919.13
2022-09-13T18:04:59.555Z,99911.50
2022-09-13T18:07:29.578Z,99912.72
2022-09-13T18:09:59.108Z,99912.13
2022-09-13T18:12:27.323Z,99909.72
2022-09-13T18:14:55.640Z,99906.31
2022-09-13T18:17:24.360Z,99898.56
2022-09-13T18:19:52.697Z,99906.69
2022-09-13T18:22:21.124Z,99910.44
2022-09-13T18:24:49.314Z,99910.69
2022-09-13T18:27:18.896Z,99923.28
2022-09-13T18:29:47.526Z,99925.22
2022-09-13T18:32:15.748Z,99928.13
2022-09-13T18:34:44.209Z,99936.13
2022-09-13T18:37:12.620Z,99936.38
2022-09-13T18:39:40.859Z,99939.16
2022-09-13T18:42:09.123Z,99943.91
2022-09-13T18:44:38.889Z,99944.97
2022-09-13T18:47:08.799Z,99955.75
2022-09-13T18:49:37.158Z,99951.50
2022-09-13T18:52:06.101Z,99951.63
2022-09-13T18:54:34.283Z,99942.91
2022-09-13T18:57:02.788Z,99935.03
2022-09-13T18:59:32.156Z,99929.81
2022-09-13T19:02:01.793Z,99929.09
2022-09-13T19:04:31.895Z,99924.00
2022-09-13T19:07:02.502Z,99930.28
2022-09-13T19:09:30.793Z,99927.88
2022-09-13T19:11:58.965Z,99920.84
2022-09-13T19:14:29.324Z,99921.94
2022-09-13T19:17:00.869Z,99919.34
2022-09-13T19:19:31.930Z,99920.31
2022-09-13T19:22:00.124Z,99926.63
2022-09-13T19:24:28.351Z,99930.13
2022-09-13T19:26:56.581Z,99924.91
2022-09-13T19:29:24.892Z,99926.88
2022-09-13T19:31:55.724Z,99922.50
2022-09-13T19:34:24.403Z,99928.78
2022-09-13T19:36:57.615Z,99925.28
2022-09-13T19:39:29.492Z,99922.63
2022-09-13T19:41:59.993Z,99923.47
2022-09-13T19:44:28.540Z,99934.13
2022-09-13T19:47:23.727Z,99938.59
2022-09-13T19:49:45.035Z,99945.63
2022-09-13T19:52:14.612Z,99937.63
2022-09-13T19:54:43.122Z,99931.56
2022-09-13T19:57:11.319Z,99939.69
2022-09-13T19:59:39.588Z,99935.34
2022-09-13T20:02:07.770Z,99927.34
2022-09-13T20:04:36.541Z,99930.00
2022-09-13T20:07:04.749Z,99925.63
2022-09-13T20:09:34.356Z,99923.09
2022-09-13T20:12:02.796Z,99923.94
2022-09-13T20:14:32.737Z,99934.59
2022-09-13T20:17:02.407Z,99932.03
2022-09-13T20:19:40.945Z,99933.84
2022-09-13T20:22:11.375Z,99940.16
2022-09-13T20:24:41.035Z,99940.16
2022-09-13T20:27:09.547Z,99941.13
2022-09-13T20:29:37.874Z,99940.41
2022-09-13T20:32:06.375Z,99934.31
2022-09-13T20:34:35.129Z,99928.25
2022-09-13T20:37:03.354Z,99924.88
2022-09-13T20:39:31.599Z,99922.31
2022-09-13T20:42:01.159Z,99910.84
2022-09-13T20:44:29.635Z,99910.00
2022-09-13T20:46:57.778Z,99911.81
2022-09-13T20:49:26.263Z,99903.91
2022-09-13T20:51:54.485Z,99915.56
2022-09-13T20:54:22.687Z,99920.03
2022-09-13T20:56:50.930Z,99913.00
2022-09-13T20:59:21.173Z,99912.28
2022-09-13T21:01:49.816Z,99909.84
2022-09-13T21:04:18.278Z,99902.81
2022-09-13T21:07:00.744Z,99896.78
2022-09-13T21:09:29.162Z,99885.38
2022-09-13T21:11:57.550Z,99880.28
2022-09-13T21:14:27.301Z,99886.69
2022-09-13T21:16:56.746Z,99886.94
2022-09-13T21:19:26.529Z,99876.50
2022-09-13T21:21:55.070Z,99874.00
2022-09-13T21:24:23.224Z,99873.13
2022-09-13T21:26:51.863Z,99880.16
2022-09-13T21:29:20.059Z,99874.94
2022-09-13T21:31:49.873Z,99873.13
2022-09-13T21:34:19.928Z,99867.91
2022-09-13T21:36:50.362Z,99881.22
2022-09-13T21:39:19.399Z,99860.16
2022-09-13T21:41:47.745Z,99854.94
2022-09-13T21:44:16.812Z,99844.44
2022-09-13T21:46:46.696Z,99841.03
2022-09-13T21:49:16.776Z,99838.50
2022-09-13T21:51:47.507Z,99837.63
2022-09-13T21:54:18.088Z,99843.94
2022-09-13T21:56:51.329Z,99834.25
2022-09-13T21:59:21.529Z,99829.88
2022-09-13T22:01:52.245Z,99830.00
2022-09-13T22:04:27.053Z,99820.44
2022-09-13T22:06:55.529Z,99815.59
2022-09-13T22:09:26.855Z,99817.28
2022-09-13T22:11:57.299Z,99810.25
2022-09-13T22:14:26.548Z,99813.66
2022-09-13T22:16:55.002Z,99819.69
2022-09-13T22:19:27.079Z,99824.06
2022-09-13T22:21:59.529Z,99828.41
2022-09-13T22:24:31.763Z,99819.59
2022-09-13T22:27:00.321Z,99812.59
2022-09-13T22:29:29.200Z,99811.72
2022-09-13T22:31:57.710Z,99813.53
2022-09-13T22:34:30.681Z,99804.72
2022-09-13T22:37:00.060Z,99803.03
2022-09-13T22:39:28.421Z,99802.16
2022-09-13T22:41:56.622Z,99803.13
2022-09-13T22:44:24.857Z,99799.63
2022-09-13T22:46:53.228Z,99794.31
2022-09-13T22:49:21.579Z,99785.47
2022-09-13T22:51:51.216Z,99791.75
2022-09-13T22:54:20.529Z,99790.06
2022-09-13T22:56:49.072Z,99783.88
2022-09-13T22:59:20.148Z,99783.06
2022-09-13T23:01:49.022Z,99788.38
2022-09-13T23:04:17.600Z,99782.22
2022-09-13T23:06:46.591Z,99775.16
2022-09-13T23:09:19.190Z,99784.94
2022-09-13T23:11:47.973Z,99793.53
2022-09-13T23:14:19.813Z,99794.41
2022-09-13T23:16:51.149Z,99797.28
2022-09-13T23:19:23.221Z,99782.25
2022-09-13T23:21:54.432Z,99769.97
2022-09-13T23:24:25.114Z,99775.84
2022-09-13T23:26:56.828Z,99783.53
2022-09-13T23:29:25.467Z,99795.56
2022-09-13T23:31:53.744Z,99785.38
2022-09-13T23:34:23.120Z,99777.81
2022-09-13T23:36:52.219Z,99780.69
2022-09-13T23:39:21.243Z,99784.53
2022-09-13T23:41:52.004Z,99792.00
2022-09-13T23:44:20.485Z,99802.84
2022-09-13T23:46:48.717Z,99817.06
2022-09-13T23:49:17.637Z,99820.03
2022-09-13T23:51:46.371Z,99829.06
2022-09-13T23:54:15.139Z,99826.63
2022-09-13T23:56:45.083Z,99827.59
2022-09-13T23:59:14.983Z,99835.56
